createdAt,value
2022-11-25T00:00:34.406Z,14.10
2022-11-25T00:01:34.390Z,11.40
2022-11-25T00:02:34.330Z,9.60
2022-11-25T00:03:34.330Z,13.80
2022-11-25T00:04:34.458Z,10.10
2022-11-25T00:05:34.201Z,8.40
2022-11-25T00:06:34.150Z,9.60
2022-11-25T00:07:34.172Z,10.80
2022-11-25T00:08:34.069Z,11.20
2022-11-25T00:09:34.029Z,11.50
2022-11-25T00:10:34.007Z,10.70
2022-11-25T00:11:33.943Z,9.60
2022-11-25T00:12:33.892Z,11.20
2022-11-25T00:13:33.861Z,9.10
2022-11-25T00:14:34.151Z,13.20
2022-11-25T00:15:33.771Z,12.90
2022-11-25T00:16:33.805Z,11.00
2022-11-25T00:17:33.701Z,11.40
2022-11-25T00:18:33.642Z,9.40
2022-11-25T00:19:33.601Z,8.90
2022-11-25T00:20:33.565Z,10.50
2022-11-25T00:21:33.522Z,9.50
2022-11-25T00:22:33.514Z,10.90
2022-11-25T00:23:33.625Z,12.10
2022-11-25T00:24:33.693Z,12.80
2022-11-25T00:25:33.354Z,10.80
2022-11-25T00:26:33.298Z,10.90
2022-11-25T00:27:33.261Z,14.10
2022-11-25T00:28:33.219Z,12.20
2022-11-25T00:29:33.185Z,11.40
2022-11-25T00:30:33.137Z,11.50
2022-11-25T00:31:33.146Z,11.50
2022-11-25T00:32:33.046Z,9.70
2022-11-25T00:33:33.005Z,9.60
2022-11-25T00:34:33.218Z,12.30
2022-11-25T00:35:32.923Z,12.50
2022-11-25T00:36:32.876Z,11.40
2022-11-25T00:37:32.834Z,13.20
2022-11-25T00:38:32.791Z,13.40
2022-11-25T00:39:32.749Z,11.40
2022-11-25T00:40:32.720Z,11.00
2022-11-25T00:41:32.667Z,11.60
2022-11-25T00:42:32.616Z,11.00
2022-11-25T00:43:32.588Z,12.00
2022-11-25T00:44:32.847Z,10.30
2022-11-25T00:45:32.540Z,12.70
2022-11-25T00:46:32.449Z,11.20
2022-11-25T00:47:32.411Z,9.10
2022-11-25T00:48:32.369Z,12.80
2022-11-25T00:49:32.326Z,11.10
2022-11-25T00:50:32.279Z,10.90
2022-11-25T00:51:32.274Z,11.90
2022-11-25T00:52:32.212Z,12.20
2022-11-25T00:53:32.159Z,10.70
2022-11-25T00:54:32.116Z,10.50
2022-11-25T00:55:32.072Z,12.30
2022-11-25T00:56:32.026Z,12.60
2022-11-25T00:57:31.997Z,11.50
2022-11-25T00:58:31.939Z,13.10
2022-11-25T00:59:31.899Z,12.40
2022-11-25T01:00:31.859Z,11.70
2022-11-25T01:01:31.890Z,11.30
2022-11-25T01:02:31.804Z,9.90
2022-11-25T01:03:31.740Z,11.50
2022-11-25T01:04:31.688Z,10.10
2022-11-25T01:05:31.661Z,9.90
2022-11-25T01:06:31.600Z,11.10
2022-11-25T01:07:31.638Z,12.50
2022-11-25T01:08:31.516Z,12.40
2022-11-25T01:09:31.494Z,10.80
2022-11-25T01:10:31.428Z,12.70
2022-11-25T01:11:31.391Z,13.00
2022-11-25T01:12:31.342Z,11.70
2022-11-25T01:13:31.310Z,8.90
2022-11-25T01:14:31.259Z,15.70
2022-11-25T01:15:31.233Z,9.70
2022-11-25T01:16:31.253Z,9.90
2022-11-25T01:17:42.417Z,12.00
2022-11-25T01:18:31.088Z,9.80
2022-11-25T01:19:31.051Z,10.10
2022-11-25T01:20:31.004Z,6.90
2022-11-25T01:21:30.976Z,10.40
2022-11-25T01:22:30.917Z,10.40
2022-11-25T01:23:30.881Z,10.50
2022-11-25T01:24:30.832Z,12.70
2022-11-25T01:25:30.795Z,12.40
2022-11-25T01:26:30.751Z,10.60
2022-11-25T01:27:30.719Z,9.50
2022-11-25T01:28:30.664Z,11.10
2022-11-25T01:29:30.637Z,12.20
2022-11-25T01:30:30.578Z,10.40
2022-11-25T01:31:30.597Z,11.60
2022-11-25T01:32:30.497Z,8.60
2022-11-25T01:33:30.461Z,11.40
2022-11-25T01:34:30.410Z,11.20
2022-11-25T01:35:30.377Z,10.30
2022-11-25T01:36:30.330Z,8.60
2022-11-25T01:37:30.289Z,11.90
2022-11-25T01:38:30.243Z,10.00
2022-11-25T01:39:32.775Z,11.80
2022-11-25T01:40:30.152Z,10.30
2022-11-25T01:41:30.115Z,10.70
2022-11-25T01:42:30.069Z,11.00
2022-11-25T01:43:30.027Z,11.20
2022-11-25T01:44:29.986Z,10.70
2022-11-25T01:45:29.993Z,11.30
2022-11-25T01:46:29.901Z,11.70
2022-11-25T01:47:29.859Z,11.50
2022-11-25T01:48:29.820Z,12.20
2022-11-25T01:49:29.775Z,11.50
2022-11-25T01:50:29.731Z,10.50
2022-11-25T01:51:29.705Z,9.80
2022-11-25T01:52:29.689Z,10.10
2022-11-25T01:53:29.613Z,10.50
2022-11-25T01:54:29.561Z,10.10
2022-11-25T01:55:29.520Z,12.20
2022-11-25T01:56:29.495Z,10.40
2022-11-25T01:57:29.435Z,10.50
2022-11-25T01:58:29.403Z,10.50
2022-11-25T01:59:29.355Z,9.00
2022-11-25T02:00:29.307Z,10.50
2022-11-25T02:01:29.355Z,11.40
2022-11-25T02:02:29.264Z,10.60
2022-11-25T02:03:29.187Z,8.20
2022-11-25T02:04:29.151Z,10.50
2022-11-25T02:05:33.637Z,11.90
2022-11-25T02:06:29.056Z,13.20
2022-11-25T02:07:29.124Z,9.20
2022-11-25T02:08:28.986Z,11.00
2022-11-25T02:09:28.930Z,11.50
2022-11-25T02:10:28.895Z,11.90
2022-11-25T02:11:28.851Z,9.50
2022-11-25T02:12:28.808Z,10.90
2022-11-25T02:13:28.761Z,10.00
2022-11-25T02:14:28.716Z,11.30
2022-11-25T02:15:28.676Z,11.80
2022-11-25T02:16:28.741Z,9.40
2022-11-25T02:17:28.595Z,11.00
2022-11-25T02:18:28.546Z,10.80
2022-11-25T02:19:28.507Z,10.20
2022-11-25T02:20:28.466Z,11.00
2022-11-25T02:21:28.429Z,10.40
2022-11-25T02:22:28.395Z,11.50
2022-11-25T02:23:28.344Z,11.00
2022-11-25T02:24:28.294Z,10.10
2022-11-25T02:25:28.269Z,10.80
2022-11-25T02:26:28.211Z,11.00
2022-11-25T02:27:28.169Z,11.90
2022-11-25T02:28:28.139Z,11.90
2022-11-25T02:29:28.092Z,10.80
2022-11-25T02:30:28.044Z,9.90
2022-11-25T02:31:28.057Z,9.90
2022-11-25T02:32:27.959Z,10.90
2022-11-25T02:33:27.930Z,12.80
2022-11-25T02:34:27.873Z,11.20
2022-11-25T02:35:27.836Z,10.00
2022-11-25T02:36:27.798Z,11.60
2022-11-25T02:37:27.753Z,10.60
2022-11-25T02:38:27.704Z,11.80
2022-11-25T02:39:27.680Z,10.50
2022-11-25T02:40:27.638Z,12.70
2022-11-25T02:41:27.586Z,10.80
2022-11-25T02:42:27.540Z,12.10
2022-11-25T02:43:27.500Z,11.50
2022-11-25T02:44:27.453Z,11.80
2022-11-25T02:45:27.450Z,11.80
2022-11-25T02:46:27.412Z,12.90
2022-11-25T02:47:27.328Z,8.50
2022-11-25T02:48:52.866Z,8.70
2022-11-25T02:49:27.246Z,11.10
2022-11-25T02:50:27.204Z,10.00
2022-11-25T02:51:27.182Z,11.00
2022-11-25T02:52:27.125Z,13.40
2022-11-25T02:53:27.089Z,10.20
2022-11-25T02:54:27.034Z,11.90
2022-11-25T02:55:27.007Z,10.60
2022-11-25T02:56:26.950Z,10.30
2022-11-25T02:57:26.915Z,11.80
2022-11-25T02:58:26.872Z,8.90
2022-11-25T02:59:26.842Z,12.20
2022-11-25T03:00:26.782Z,11.30
2022-11-25T03:01:26.822Z,10.10
2022-11-25T03:02:26.738Z,11.80
2022-11-25T03:03:26.662Z,10.50
2022-11-25T03:04:26.615Z,8.90
2022-11-25T03:05:26.579Z,11.00
2022-11-25T03:06:26.543Z,12.70
2022-11-25T03:07:26.537Z,11.90
2022-11-25T03:08:26.445Z,8.40
2022-11-25T03:09:26.407Z,9.90
2022-11-25T03:10:26.364Z,10.70
2022-11-25T03:11:26.325Z,11.10
2022-11-25T03:12:26.291Z,10.20
2022-11-25T03:13:26.240Z,9.60
2022-11-25T03:14:26.195Z,11.20
2022-11-25T03:15:26.155Z,8.40
2022-11-25T03:16:26.128Z,10.50
2022-11-25T03:17:26.074Z,11.10
2022-11-25T03:18:26.046Z,11.90
2022-11-25T03:19:25.987Z,11.90
2022-11-25T03:20:25.945Z,10.50
2022-11-25T03:21:25.908Z,9.60
2022-11-25T03:22:25.859Z,8.50
2022-11-25T03:23:25.819Z,10.50
2022-11-25T03:24:25.787Z,11.20
2022-11-25T03:25:25.744Z,9.80
2022-11-25T03:26:25.695Z,9.70
2022-11-25T03:27:30.076Z,9.60
2022-11-25T03:28:25.620Z,9.00
2022-11-25T03:29:25.569Z,9.70
2022-11-25T03:30:25.540Z,9.50
2022-11-25T03:31:25.520Z,12.00
2022-11-25T03:32:25.442Z,12.50
2022-11-25T03:33:25.400Z,8.90
2022-11-25T03:34:25.359Z,12.50
2022-11-25T03:35:25.321Z,12.00
2022-11-25T03:36:25.290Z,10.10
2022-11-25T03:37:25.304Z,12.70
2022-11-25T03:38:25.189Z,11.30
2022-11-25T03:39:25.158Z,9.30
2022-11-25T03:40:25.110Z,9.40
2022-11-25T03:41:25.074Z,11.90
2022-11-25T03:42:25.050Z,11.50
2022-11-25T03:43:24.991Z,9.50
2022-11-25T03:44:24.955Z,12.30
2022-11-25T03:45:24.911Z,10.20
2022-11-25T03:46:24.926Z,11.50
2022-11-25T03:47:24.818Z,9.20
2022-11-25T03:48:24.787Z,11.10
2022-11-25T03:49:24.736Z,10.20
2022-11-25T03:50:24.691Z,7.30
2022-11-25T03:51:24.652Z,8.00
2022-11-25T03:52:24.608Z,8.80
2022-11-25T03:53:24.574Z,9.30
2022-11-25T03:54:24.536Z,10.30
2022-11-25T03:55:24.497Z,9.00
2022-11-25T03:56:24.441Z,9.70
2022-11-25T03:57:24.408Z,10.10
2022-11-25T03:58:24.359Z,11.10
2022-11-25T03:59:24.321Z,11.80
2022-11-25T04:00:24.275Z,12.10
2022-11-25T04:01:24.288Z,11.40
2022-11-25T04:02:24.203Z,10.30
2022-11-25T04:03:24.163Z,8.10
2022-11-25T04:04:24.107Z,9.40
2022-11-25T04:05:24.076Z,12.80
2022-11-25T04:06:24.043Z,9.80
2022-11-25T04:07:24.074Z,9.60
2022-11-25T04:08:23.964Z,12.70
2022-11-25T04:09:23.908Z,12.90
2022-11-25T04:10:23.857Z,11.20
2022-11-25T04:11:23.820Z,11.80
2022-11-25T04:12:23.775Z,11.30
2022-11-25T04:13:23.745Z,11.30
2022-11-25T04:14:23.701Z,12.20
2022-11-25T04:15:23.655Z,9.80
2022-11-25T04:16:23.663Z,10.50
2022-11-25T04:17:23.568Z,13.00
2022-11-25T04:18:23.529Z,13.00
2022-11-25T04:19:23.497Z,12.10
2022-11-25T04:20:23.443Z,12.40
2022-11-25T04:21:23.398Z,12.30
2022-11-25T04:22:23.357Z,11.80
2022-11-25T04:23:23.312Z,10.30
2022-11-25T04:24:23.278Z,10.80
2022-11-25T04:25:23.249Z,13.50
2022-11-25T04:26:23.201Z,12.60
2022-11-25T04:27:23.155Z,12.20
2022-11-25T04:28:23.130Z,12.80
2022-11-25T04:29:23.069Z,11.10
2022-11-25T04:30:23.028Z,12.40
2022-11-25T04:31:22.979Z,16.00
2022-11-25T04:32:22.959Z,10.70
2022-11-25T04:33:22.907Z,13.90
2022-11-25T04:34:22.864Z,10.70
2022-11-25T04:35:22.809Z,12.30
2022-11-25T04:36:22.773Z,13.30
2022-11-25T04:37:22.726Z,11.40
2022-11-25T04:38:22.699Z,12.80
2022-11-25T04:39:22.646Z,12.00
2022-11-25T04:40:22.615Z,9.70
2022-11-25T04:41:22.555Z,14.30
2022-11-25T04:42:22.517Z,14.20
2022-11-25T04:43:22.473Z,13.60
2022-11-25T04:44:22.437Z,11.80
2022-11-25T04:45:23.591Z,13.70
2022-11-25T04:46:22.416Z,10.70
2022-11-25T04:47:22.307Z,12.70
2022-11-25T04:48:22.266Z,12.30
2022-11-25T04:49:22.227Z,10.70
2022-11-25T04:50:22.201Z,12.20
2022-11-25T04:51:22.152Z,12.90
2022-11-25T04:52:22.103Z,12.50
2022-11-25T04:53:22.057Z,11.40
2022-11-25T04:54:22.014Z,11.70
2022-11-25T04:55:21.989Z,12.80
2022-11-25T04:56:21.928Z,11.30
2022-11-25T04:57:21.905Z,11.30
2022-11-25T04:58:21.849Z,11.60
2022-11-25T04:59:21.808Z,10.90
2022-11-25T05:00:21.765Z,10.80
2022-11-25T05:01:21.845Z,10.40
2022-11-25T05:02:21.706Z,12.40
2022-11-25T05:03:21.634Z,14.20
2022-11-25T05:04:21.592Z,9.00
2022-11-25T05:05:21.563Z,12.70
2022-11-25T05:06:21.515Z,10.40
2022-11-25T05:07:21.504Z,12.00
2022-11-25T05:08:21.427Z,13.80
2022-11-25T05:09:21.400Z,14.20
2022-11-25T05:10:21.345Z,11.40
2022-11-25T05:20:31.055Z,12.40
2022-11-25T05:21:30.997Z,12.60
2022-11-25T05:22:30.951Z,17.30
2022-11-25T05:23:30.922Z,13.10
2022-11-25T05:24:30.873Z,11.10
2022-11-25T05:25:30.826Z,12.00
2022-11-25T05:26:30.779Z,15.60
2022-11-25T05:27:30.738Z,13.60
2022-11-25T05:28:30.693Z,14.10
2022-11-25T05:29:30.664Z,14.20
2022-11-25T05:30:30.639Z,17.80
2022-11-25T05:31:30.578Z,12.10
2022-11-25T05:32:30.521Z,12.60
2022-11-25T05:33:30.480Z,15.80
2022-11-25T05:34:30.435Z,17.40
2022-11-25T05:35:30.408Z,14.70
2022-11-25T05:36:30.379Z,16.50
2022-11-25T05:37:30.310Z,18.20
2022-11-25T05:38:30.267Z,16.10
2022-11-25T05:39:30.230Z,19.10
2022-11-25T05:40:30.205Z,15.80
2022-11-25T05:41:30.152Z,13.40
2022-11-25T05:42:30.117Z,17.40
2022-11-25T05:43:30.055Z,14.70
2022-11-25T05:44:30.011Z,17.50
2022-11-25T05:45:29.970Z,15.10
2022-11-25T05:46:30.004Z,12.50
2022-11-25T05:47:29.913Z,16.40
2022-11-25T05:48:29.840Z,15.50
2022-11-25T05:49:29.801Z,16.30
2022-11-25T05:50:29.752Z,17.80
2022-11-25T05:51:29.726Z,18.70
2022-11-25T05:52:29.668Z,16.50
2022-11-25T05:53:29.643Z,13.60
2022-11-25T05:54:29.580Z,14.10
2022-11-25T05:55:29.547Z,15.30
2022-11-25T05:56:29.496Z,17.90
2022-11-25T05:57:29.467Z,17.20
2022-11-25T05:58:29.425Z,14.90
2022-11-25T05:59:29.388Z,15.30
2022-11-25T06:00:29.330Z,14.80
2022-11-25T06:01:29.288Z,15.30
2022-11-25T06:02:29.338Z,16.60
2022-11-25T06:03:29.258Z,14.90
2022-11-25T06:04:29.158Z,12.60
2022-11-25T06:05:29.148Z,14.00
2022-11-25T06:06:29.075Z,16.30
2022-11-25T06:07:29.210Z,15.50
2022-11-25T06:08:29.001Z,21.30
2022-11-25T06:09:28.954Z,15.00
2022-11-25T06:10:28.909Z,18.40
2022-11-25T06:11:28.866Z,13.90
2022-11-25T06:12:28.907Z,16.60
2022-11-25T06:13:28.782Z,16.10
2022-11-25T06:14:28.735Z,16.60
2022-11-25T06:15:28.690Z,20.20
2022-11-25T06:16:28.733Z,15.60
2022-11-25T06:17:28.607Z,16.20
2022-11-25T06:18:28.577Z,15.50
2022-11-25T06:19:28.523Z,14.90
2022-11-25T06:20:28.481Z,15.40
2022-11-25T06:21:28.437Z,14.10
2022-11-25T06:22:28.412Z,15.80
2022-11-25T06:23:28.358Z,15.00
2022-11-25T06:24:28.329Z,15.40
2022-11-25T06:25:28.268Z,19.10
2022-11-25T06:26:28.229Z,15.50
2022-11-25T06:27:38.999Z,17.40
2022-11-25T06:28:28.159Z,17.80
2022-11-25T06:29:28.099Z,15.40
2022-11-25T06:30:28.061Z,16.60
2022-11-25T06:31:28.055Z,18.00
2022-11-25T06:32:27.976Z,14.70
2022-11-25T06:33:27.950Z,14.90
2022-11-25T06:34:27.893Z,15.50
2022-11-25T06:35:27.842Z,16.40
2022-11-25T06:36:27.808Z,14.40
2022-11-25T06:37:27.759Z,15.80
2022-11-25T06:38:27.720Z,17.80
2022-11-25T06:39:27.694Z,17.70
2022-11-25T06:40:27.639Z,18.20
2022-11-25T06:41:27.590Z,16.70
2022-11-25T06:42:27.549Z,15.30
2022-11-25T06:43:27.505Z,16.20
2022-11-25T06:44:27.464Z,17.10
2022-11-25T06:45:27.447Z,16.70
2022-11-25T06:46:27.409Z,17.10
2022-11-25T06:47:27.334Z,18.50
2022-11-25T06:48:27.301Z,14.70
2022-11-25T06:49:27.250Z,16.70
2022-11-25T06:50:27.224Z,15.70
2022-11-25T06:51:27.173Z,17.80
2022-11-25T06:52:27.137Z,17.70
2022-11-25T06:53:27.083Z,13.60
2022-11-25T06:54:27.038Z,15.90
2022-11-25T06:55:27.002Z,18.30
2022-11-25T06:56:26.957Z,20.20
2022-11-25T06:57:26.914Z,18.20
2022-11-25T06:58:35.792Z,14.80
2022-11-25T06:59:26.829Z,16.00
2022-11-25T07:00:26.794Z,15.70
2022-11-25T07:01:26.789Z,16.90
2022-11-25T07:02:26.723Z,15.60
2022-11-25T07:03:26.737Z,14.50
2022-11-25T07:04:26.634Z,15.90
2022-11-25T07:05:26.573Z,17.50
2022-11-25T07:06:26.537Z,15.90
2022-11-25T07:07:26.527Z,18.30
2022-11-25T07:08:29.559Z,12.50
2022-11-25T07:09:26.403Z,15.10
2022-11-25T07:10:26.388Z,16.10
2022-11-25T07:11:26.321Z,16.70
2022-11-25T07:12:26.284Z,17.40
2022-11-25T07:13:26.235Z,18.10
2022-11-25T07:14:26.196Z,15.00
2022-11-25T07:15:26.150Z,15.40
2022-11-25T07:16:26.182Z,13.80
2022-11-25T07:17:35.619Z,16.60
2022-11-25T07:18:26.034Z,13.80
2022-11-25T07:19:25.982Z,16.50
2022-11-25T07:20:25.940Z,16.90
2022-11-25T07:21:25.892Z,16.50
2022-11-25T07:22:25.879Z,18.00
2022-11-25T07:23:25.808Z,13.20
2022-11-25T07:24:25.769Z,17.50
2022-11-25T07:25:30.546Z,15.80
2022-11-25T07:26:25.685Z,13.80
2022-11-25T07:27:25.639Z,19.20
2022-11-25T07:28:25.615Z,16.10
2022-11-25T07:31:29.200Z,17.60
2022-11-25T07:32:25.435Z,18.00
2022-11-25T07:33:25.432Z,15.40
2022-11-25T07:34:25.355Z,19.20
2022-11-25T07:35:25.316Z,17.50
2022-11-25T07:36:25.271Z,18.80
2022-11-25T07:37:25.217Z,15.70
2022-11-25T07:38:25.175Z,18.90
2022-11-25T07:39:25.138Z,14.20
2022-11-25T07:40:25.108Z,16.40
2022-11-25T07:41:25.051Z,17.40
2022-11-25T07:42:25.004Z,16.60
2022-11-25T07:43:24.958Z,16.40
2022-11-25T07:44:24.923Z,17.80
2022-11-25T07:45:24.875Z,17.20
2022-11-25T07:46:27.091Z,17.40
2022-11-25T07:47:24.791Z,16.20
2022-11-25T07:48:24.753Z,20.30
2022-11-25T07:49:24.709Z,18.00
2022-11-25T07:50:24.677Z,15.80
2022-11-25T07:51:24.624Z,18.40
2022-11-25T07:52:24.604Z,17.50
2022-11-25T07:53:24.541Z,16.80
2022-11-25T07:54:24.496Z,15.10
2022-11-25T07:55:24.454Z,13.70
2022-11-25T07:56:24.415Z,16.20
2022-11-25T07:57:24.373Z,19.70
2022-11-25T07:58:24.357Z,14.10
2022-11-25T07:59:24.289Z,20.10
2022-11-25T08:00:24.246Z,17.50
2022-11-25T08:01:24.322Z,16.40
2022-11-25T08:02:24.201Z,16.70
2022-11-25T08:03:24.158Z,15.50
2022-11-25T08:04:24.088Z,13.80
2022-11-25T08:05:24.030Z,17.90
2022-11-25T08:06:23.999Z,17.10
2022-11-25T08:07:23.987Z,16.20
2022-11-25T08:08:23.915Z,18.00
2022-11-25T08:09:24.046Z,17.00
2022-11-25T08:10:23.824Z,15.40
2022-11-25T08:11:23.779Z,17.50
2022-11-25T08:12:23.744Z,16.70
2022-11-25T08:13:23.694Z,15.00
2022-11-25T08:14:23.656Z,14.50
2022-11-25T08:15:23.619Z,19.20
2022-11-25T08:16:23.637Z,13.40
2022-11-25T08:17:23.535Z,12.90
2022-11-25T08:18:23.491Z,12.90
2022-11-25T08:19:28.452Z,12.10
2022-11-25T08:20:23.406Z,13.20
2022-11-25T08:21:23.375Z,11.50
2022-11-25T08:22:23.325Z,12.00
2022-11-25T08:23:23.280Z,14.10
2022-11-25T08:24:23.244Z,10.80
2022-11-25T08:25:23.198Z,13.00
2022-11-25T08:26:23.167Z,11.70
2022-11-25T08:27:23.133Z,13.00
2022-11-25T08:28:23.080Z,13.10
2022-11-25T08:29:23.063Z,12.40
2022-11-25T08:30:22.995Z,14.40
2022-11-25T08:31:23.006Z,12.80
2022-11-25T08:32:23.045Z,14.30
2022-11-25T08:33:22.881Z,13.80
2022-11-25T08:34:22.837Z,13.00
2022-11-25T08:35:22.791Z,12.20
2022-11-25T08:36:22.756Z,15.20
2022-11-25T08:37:22.708Z,12.10
2022-11-25T08:38:22.679Z,13.30
2022-11-25T08:39:51.325Z,15.80
2022-11-25T08:40:22.586Z,12.40
2022-11-25T08:41:22.543Z,12.40
2022-11-25T08:42:22.504Z,13.00
2022-11-25T08:43:27.858Z,13.50
2022-11-25T08:44:22.433Z,13.10
2022-11-25T08:45:22.402Z,12.50
2022-11-25T08:46:22.418Z,11.60
2022-11-25T08:47:22.295Z,13.90
2022-11-25T08:48:22.265Z,13.10
2022-11-25T08:49:22.215Z,12.30
2022-11-25T08:50:22.174Z,13.10
2022-11-25T08:51:22.147Z,12.80
2022-11-25T08:52:22.116Z,13.60
2022-11-25T08:53:22.052Z,10.70
2022-11-25T08:54:22.032Z,13.20
2022-11-25T08:55:21.968Z,12.60
2022-11-25T08:56:26.060Z,9.90
2022-11-25T08:57:21.883Z,9.90
2022-11-25T08:58:21.871Z,11.30
2022-11-25T08:59:21.806Z,10.10
2022-11-25T09:00:21.765Z,9.90
2022-11-25T09:01:21.782Z,9.70
2022-11-25T09:02:21.707Z,9.60
2022-11-25T09:03:21.677Z,7.60
2022-11-25T09:04:21.615Z,9.30
2022-11-25T09:05:21.577Z,8.90
2022-11-25T09:06:21.543Z,8.90
2022-11-25T09:07:24.863Z,7.60
2022-11-25T09:08:21.449Z,8.80
2022-11-25T09:09:35.523Z,10.10
2022-11-25T09:10:21.433Z,10.40
2022-11-25T09:11:21.432Z,8.30
2022-11-25T09:12:21.296Z,10.40
2022-11-25T09:13:21.270Z,10.30
2022-11-25T09:14:21.339Z,10.80
2022-11-25T09:15:21.184Z,9.60
2022-11-25T09:16:21.257Z,9.90
2022-11-25T09:17:21.106Z,10.20
2022-11-25T09:18:21.069Z,9.60
2022-11-25T09:19:21.026Z,10.70
2022-11-25T09:20:21.669Z,7.60
2022-11-25T09:21:20.962Z,9.20
2022-11-25T09:22:20.915Z,9.30
2022-11-25T09:23:20.876Z,8.30
2022-11-25T09:24:20.847Z,10.70
2022-11-25T09:25:20.803Z,9.30
2022-11-25T09:26:20.765Z,8.20
2022-11-25T09:27:20.741Z,10.30
2022-11-25T09:28:20.708Z,7.50
2022-11-25T09:29:20.684Z,9.10
2022-11-25T09:30:20.619Z,8.90
2022-11-25T09:31:20.686Z,10.50
2022-11-25T09:32:20.559Z,9.00
2022-11-25T09:33:20.526Z,7.90
2022-11-25T09:34:20.480Z,9.40
2022-11-25T09:35:20.448Z,8.80
2022-11-25T09:36:20.405Z,9.00
2022-11-25T09:37:20.359Z,11.20
2022-11-25T09:38:20.329Z,9.80
2022-11-25T09:39:20.284Z,9.80
2022-11-25T09:40:20.291Z,11.60
2022-11-25T09:41:20.230Z,10.80
2022-11-25T09:42:20.182Z,11.00
2022-11-25T09:43:20.199Z,9.10
2022-11-25T09:44:20.100Z,12.60
2022-11-25T09:45:20.068Z,10.90
2022-11-25T09:46:20.090Z,10.20
2022-11-25T09:47:19.998Z,13.30
2022-11-25T09:48:19.978Z,11.40
2022-11-25T09:49:19.914Z,13.30
2022-11-25T09:50:19.951Z,13.80
2022-11-25T09:51:19.863Z,11.70
2022-11-25T09:52:19.814Z,12.70
2022-11-25T09:53:19.812Z,9.90
2022-11-25T09:54:19.729Z,9.90
2022-11-25T09:55:19.680Z,11.10
2022-11-25T09:56:19.648Z,10.90
2022-11-25T09:57:19.666Z,11.10
2022-11-25T09:58:19.584Z,10.60
2022-11-25T09:59:19.531Z,8.90
2022-11-25T10:00:19.553Z,10.30
2022-11-25T10:01:19.514Z,8.60
2022-11-25T10:02:19.493Z,8.60
2022-11-25T10:03:19.490Z,8.80
2022-11-25T10:04:19.362Z,8.90
2022-11-25T10:05:19.310Z,10.60
2022-11-25T10:06:19.325Z,10.30
2022-11-25T10:07:19.230Z,9.80
2022-11-25T10:08:19.199Z,9.80
2022-11-25T10:09:19.160Z,10.10
2022-11-25T10:10:19.245Z,11.30
2022-11-25T10:11:19.081Z,9.90
2022-11-25T10:12:19.084Z,9.80
2022-11-25T10:13:19.006Z,8.60
2022-11-25T10:14:18.989Z,8.40
2022-11-25T10:15:18.935Z,8.30
2022-11-25T10:16:18.958Z,9.60
2022-11-25T10:17:18.852Z,8.00
2022-11-25T10:18:18.820Z,9.50
2022-11-25T10:19:18.773Z,9.80
2022-11-25T10:20:18.811Z,11.30
2022-11-25T10:21:18.700Z,8.30
2022-11-25T10:22:18.692Z,9.40
2022-11-25T10:23:21.253Z,12.60
2022-11-25T10:24:18.595Z,9.90
2022-11-25T10:25:18.573Z,8.20
2022-11-25T10:26:18.519Z,9.30
2022-11-25T10:27:18.471Z,11.20
2022-11-25T10:28:18.442Z,8.30
2022-11-25T10:29:18.411Z,10.20
2022-11-25T10:30:18.453Z,9.20
2022-11-25T10:31:18.412Z,10.30
2022-11-25T10:32:18.281Z,8.50
2022-11-25T10:33:18.243Z,10.80
2022-11-25T10:34:18.197Z,10.80
2022-11-25T10:35:18.164Z,13.70
2022-11-25T10:36:18.122Z,11.60
2022-11-25T10:37:18.099Z,9.60
2022-11-25T10:38:19.317Z,11.90
2022-11-25T10:39:18.014Z,7.80
2022-11-25T10:40:18.068Z,10.40
2022-11-25T10:41:17.934Z,10.00
2022-11-25T10:42:17.902Z,11.80
2022-11-25T10:43:17.853Z,10.90
2022-11-25T10:44:17.822Z,10.10
2022-11-25T10:45:17.778Z,10.40
2022-11-25T10:46:17.828Z,9.40
2022-11-25T10:47:17.793Z,7.90
2022-11-25T10:48:17.657Z,8.70
2022-11-25T10:49:17.627Z,8.20
2022-11-25T10:50:17.674Z,10.80
2022-11-25T10:51:17.542Z,9.10
2022-11-25T10:52:17.497Z,10.70
2022-11-25T10:53:17.466Z,11.30
2022-11-25T10:54:19.530Z,10.90
2022-11-25T10:55:17.417Z,8.70
2022-11-25T10:56:17.344Z,11.20
2022-11-25T10:57:17.304Z,9.20
2022-11-25T10:58:17.267Z,11.00
2022-11-25T10:59:17.231Z,9.70
2022-11-25T11:00:17.682Z,11.90
2022-11-25T11:01:17.224Z,9.20
2022-11-25T11:02:17.144Z,8.20
2022-11-25T11:03:17.140Z,11.90
2022-11-25T11:04:17.028Z,11.50
2022-11-25T11:05:16.999Z,9.80
2022-11-25T11:06:16.951Z,11.40
2022-11-25T11:07:17.057Z,10.00
2022-11-25T11:08:16.873Z,10.10
2022-11-25T11:09:16.834Z,10.80
2022-11-25T11:10:16.899Z,12.10
2022-11-25T11:11:16.789Z,12.00
2022-11-25T11:12:16.713Z,9.60
2022-11-25T11:13:16.696Z,10.20
2022-11-25T11:14:16.637Z,11.60
2022-11-25T11:15:16.607Z,10.70
2022-11-25T11:16:16.641Z,14.50
2022-11-25T11:17:16.522Z,13.30
2022-11-25T11:18:16.487Z,11.00
2022-11-25T11:19:16.457Z,9.50
2022-11-25T11:20:16.445Z,10.30
2022-11-25T11:21:16.364Z,12.30
2022-11-25T11:22:16.334Z,12.70
2022-11-25T11:23:16.292Z,10.30
2022-11-25T11:24:16.277Z,9.80
2022-11-25T11:25:16.215Z,9.70
2022-11-25T11:26:16.167Z,10.00
2022-11-25T11:27:16.139Z,9.90
2022-11-25T11:28:16.088Z,10.10
2022-11-25T11:29:16.057Z,8.00
2022-11-25T11:30:16.103Z,9.90
2022-11-25T11:31:16.025Z,8.80
2022-11-25T11:32:15.940Z,11.20
2022-11-25T11:33:15.899Z,9.80
2022-11-25T11:34:15.858Z,9.90
2022-11-25T11:35:15.822Z,8.20
2022-11-25T11:36:15.795Z,12.60
2022-11-25T11:37:15.745Z,10.50
2022-11-25T11:38:15.704Z,9.30
2022-11-25T11:39:15.682Z,9.90
2022-11-25T11:40:15.628Z,9.10
2022-11-25T11:41:15.591Z,11.00
2022-11-25T11:42:15.575Z,12.30
2022-11-25T11:43:15.521Z,11.20
2022-11-25T11:44:15.473Z,11.30
2022-11-25T11:45:15.440Z,10.90
2022-11-25T11:46:15.465Z,13.40
2022-11-25T11:47:15.369Z,9.80
2022-11-25T11:48:15.332Z,8.30
2022-11-25T11:49:15.305Z,12.70
2022-11-25T11:50:15.245Z,9.60
2022-11-25T11:51:15.215Z,9.30
2022-11-25T11:52:15.171Z,11.60
2022-11-25T11:53:15.137Z,12.60
2022-11-25T11:54:15.118Z,11.60
2022-11-25T11:55:15.062Z,11.20
2022-11-25T11:57:14.982Z,9.40
2022-11-25T11:58:14.986Z,14.00
2022-11-25T11:59:14.964Z,8.30
2022-11-25T12:00:14.866Z,11.40
2022-11-25T12:01:14.832Z,10.80
2022-11-25T12:02:14.860Z,12.00
2022-11-25T12:03:14.820Z,10.20
2022-11-25T12:04:14.712Z,9.30
2022-11-25T12:05:14.687Z,10.60
2022-11-25T12:06:14.637Z,9.60
2022-11-25T12:07:14.661Z,10.60
2022-11-25T12:08:14.567Z,8.60
2022-11-25T12:09:14.522Z,9.80
2022-11-25T12:10:14.494Z,9.90
2022-11-25T12:11:14.459Z,10.10
2022-11-25T12:12:14.407Z,8.70
2022-11-25T12:13:14.371Z,8.40
2022-11-25T12:14:14.331Z,10.00
2022-11-25T12:15:14.304Z,9.60
2022-11-25T12:16:14.332Z,10.20
2022-11-25T12:17:14.222Z,10.70
2022-11-25T12:18:14.181Z,8.20
2022-11-25T12:19:14.157Z,9.60
2022-11-25T12:20:14.115Z,10.50
2022-11-25T12:21:14.071Z,11.60
2022-11-25T12:22:14.036Z,10.20
2022-11-25T12:23:13.995Z,9.10
2022-11-25T12:24:13.951Z,10.60
2022-11-25T12:25:13.939Z,13.70
2022-11-25T12:26:13.878Z,10.60
2022-11-25T12:27:13.846Z,11.50
2022-11-25T12:28:13.802Z,11.00
2022-11-25T12:29:13.770Z,12.90
2022-11-25T12:30:13.727Z,8.50
2022-11-25T12:31:13.755Z,12.10
2022-11-25T12:32:13.655Z,9.60
2022-11-25T12:33:13.620Z,12.60
2022-11-25T12:34:13.578Z,10.20
2022-11-25T12:35:13.547Z,9.80
2022-11-25T12:36:13.508Z,11.20
2022-11-25T12:37:15.232Z,11.70
2022-11-25T12:38:13.427Z,9.40
2022-11-25T12:39:13.391Z,10.30
2022-11-25T12:40:13.356Z,10.10
2022-11-25T12:41:13.316Z,11.40
2022-11-25T12:42:13.276Z,12.10
2022-11-25T12:43:13.251Z,9.00
2022-11-25T12:44:13.210Z,9.90
2022-11-25T12:45:13.162Z,9.40
2022-11-25T12:46:13.176Z,13.60
2022-11-25T12:47:13.091Z,10.60
2022-11-25T12:48:16.178Z,10.70
2022-11-25T12:49:13.025Z,9.80
2022-11-25T12:50:12.968Z,9.10
2022-11-25T12:51:12.948Z,13.40
2022-11-25T12:52:12.893Z,10.10
2022-11-25T12:53:12.862Z,10.30
2022-11-25T12:54:12.811Z,12.50
2022-11-25T12:55:12.790Z,10.60
2022-11-25T12:56:12.743Z,13.30
2022-11-25T12:57:12.700Z,8.90
2022-11-25T12:58:12.676Z,10.60
2022-11-25T12:59:12.622Z,9.70
2022-11-25T13:00:39.863Z,11.70
2022-11-25T13:01:12.660Z,11.40
2022-11-25T13:02:12.523Z,10.50
2022-11-25T13:04:12.435Z,11.00
2022-11-25T13:05:39.066Z,12.20
2022-11-25T13:06:12.355Z,9.30
2022-11-25T13:07:12.393Z,11.40
2022-11-25T13:08:12.269Z,10.20
2022-11-25T13:09:12.232Z,11.00
2022-11-25T13:10:12.188Z,11.70
2022-11-25T13:10:55.666Z,10.70